Latest  Newer  Older  Last 2 hours slideshow  Last 24 hours slideshow  Refresh every 5 minutes 
Current image  Latest image  Rain/snow radar  Cloud coverage sat images 

All time is UTC (add 2 hours to UTC in wintertime, 3 hours to UTC in DST for Latvia local time)

2020/01/24 13:20 EVRA 241320Z 25007KT 200V290 9999 OVC014 07/05 Q1005 R18/290195 NOSIG
2020/01/24 13:20 EVLA 241320Z AUTO 26016KT 9999 BKN007/// OVC052/// 06/06 Q1009
2020/01/24 13:20 EVVA 241320Z AUTO 26015KT 9999 FEW025 06/05 Q1006
2020/01/24 13:20 EYKA 241320Z 25014KT 5000 -DZ BR OVC007 04/03 Q1011 R08/290095
2020/01/24 13:20 EYPA 241320Z 27008KT 230V310 9999 BKN008 06/05 Q1010 R19/2///95
2020/01/24 13:20 EYSA 241320Z 25014KT 9999 SCT006 OVC008 05/04 Q1009 R14L/29//95 R14R/29//95 YLO NOSIG
2020/01/24 13:20 EYVI 241320Z 26014KT 7000 -DZ OVC005 03/02 Q1011 R19/2/0195 NOSIG
2020/01/24 12:50 EEKA 241250Z 27009KT 220V320 9999 BKN011 05/03 Q1001
2020/01/24 12:50 EEKE 241250Z 29011KT 260V330 9999 BKN014 OVC020 07/04 Q1003 R17/150095
2020/01/24 12:50 EEPU 241250Z 26008KT 230V290 9999 OVC015 06/04 Q1001
2020/01/24 13:20 EETN 241320Z 29015KT 9999 -SHRA BKN009 FEW013CB 04/03 Q0999 R08/290195 NOSIG
2020/01/24 12:50 EETU 241250Z 26013KT 9999 OVC013 05/03 Q0999
   RIGA AIRPORT     EVRA               56 55N  023 58E   10   X     T          6 LV
   LIEPAJA INTL     EVLA        26406  56 31N  021 06E    4   X                8 LV
   VENTPILS         EVVA               57 21N  021 33E    6   X                8 LV
   KAUNAS           EYKA               54 54N  023 55E   77   X     T          6 LT
   PALANGA INTL     EYPA               55 55N  021 03E   10   X                6 LT
   SIAULIAI INTL    EYSA               55 54N  023 24E  135   X     T          6 LT
   VILNIUS INTL     EYVI        26730  54 38N  025 17E  197   X     T          6 LT
   KARDLA           EEKA        26116  58 59N  022 50E    4   X                8 EE
   KURESSAARE       EEKE               58 14N  022 31E    4   X                8 EE
   PARNU            EEPU               58 25N  024 28E   14   X                8 EE
   TALLINN          EETN        26038  59 24N  024 49E   40   X     T          8 EE
   TARTU            EETU               58 19N  026 41E   67   X                8 EE